Terminal Aerodrome Forecast
Issued by NWS Sterling, VA

Current Version | Previous Version | Graphics & Text | Print | Product List | Glossary On
Versions: 1 2 3 4 5 6 7 8 9 10 11 12 13 14 15 16 17 18 19 20 21 22 23 24 25 26
000
FTUS41 KLWX 282015 AAA
TAFIAD
TAF AMD
KIAD 282015Z 2820/2924 06005KT 2SM -DZ OVC008
     FM282300 06004KT 5SM -DZ BR OVC009
     FM290600 07005KT 3SM -DZ BR OVC008
     FM291200 08005KT P6SM OVC008=

USA.gov is the U.S. government's official web portal to all federal, state and local government web resources and services.